Time;durP1;ratioP1;P1;durP2;ratioP2;P2;SDS_P1;SDS_P2;PMS_P1;PMS_P2;Temp;Humidity;BMP_temperature;BMP_pressure;BME280_temperature;BME280_humidity;BME280_pressure;Samples;Min_cycle;Max_cycle;Signal;HPM_P1;HPM_P2
2023/07/14 00:01:32;;;;;;;4.93;4.20;;;;;;;;;;5037006;28;20192;-81
2023/07/14 00:03:59;;;;;;;4.97;4.43;;;;;;;;;;5037194;28;20180;-81
2023/07/14 00:06:25;;;;;;;6.77;4.17;;;;;;;;;;5037126;28;20180;-81
2023/07/14 00:08:51;;;;;;;6.33;4.30;;;;;;;;;;5021270;28;20188;-81
2023/07/14 00:11:18;;;;;;;8.03;4.30;;;;;;;;;;5003295;28;20188;-81
2023/07/14 00:13:44;;;;;;;5.23;3.83;;;;;;;;;;5047856;28;20208;-81
2023/07/14 00:16:14;;;;;;;4.73;4.27;;;;;;;;;;5036567;28;20274;-81
2023/07/14 00:18:40;;;;;;;7.00;4.40;;;;;;;;;;5037207;28;20180;-81
2023/07/14 00:21:11;;;;;;;6.53;4.43;;;;;;;;;;5037396;28;20176;-81
2023/07/14 00:23:37;;;;;;;5.53;4.20;;;;;;;;;;5037241;28;20179;-81
2023/07/14 00:26:03;;;;;;;5.87;4.80;;;;;;;;;;5037762;28;20176;-80
2023/07/14 00:28:30;;;;;;;7.40;4.80;;;;;;;;;;5026400;28;20246;-81
2023/07/14 00:30:56;;;;;;;5.70;4.73;;;;;;;;;;5056788;28;20187;-82
2023/07/14 00:33:22;;;;;;;5.13;4.27;;;;;;;;;;5056774;28;20237;-81
2023/07/14 00:35:48;;;;;;;6.90;4.77;;;;;;;;;;5074623;28;20170;-81
2023/07/14 00:38:14;;;;;;;5.60;4.70;;;;;;;;;;5038907;28;20184;-81
2023/07/14 00:40:44;;;;;;;5.80;4.70;;;;;;;;;;5039911;28;20221;-81
2023/07/14 00:43:29;;;;;;;5.20;4.70;;;;;;;;;;5036490;28;20234;-82
2023/07/14 00:45:56;;;;;;;8.23;5.30;;;;;;;;;;5021071;28;20187;-81
2023/07/14 00:48:25;;;;;;;6.00;5.27;;;;;;;;;;5043076;28;20228;-80
2023/07/14 00:50:54;;;;;;;6.80;5.10;;;;;;;;;;5037040;28;20184;-81
2023/07/14 00:53:26;;;;;;;7.33;5.13;;;;;;;;;;5044910;28;20202;-81
2023/07/14 00:56:12;;;;;;;7.70;4.90;;;;;;;;;;5036585;28;20179;-81
2023/07/14 00:58:38;;;;;;;8.67;5.77;;;;;;;;;;5039085;28;20270;-81
2023/07/14 01:01:04;;;;;;;7.07;4.90;;;;;;;;;;5056008;28;20182;-81
2023/07/14 01:03:31;;;;;;;6.23;5.13;;;;;;;;;;5052409;28;20195;-81
2023/07/14 01:05:58;;;;;;;5.87;5.20;;;;;;;;;;5047552;28;20279;-81
2023/07/14 01:08:25;;;;;;;6.13;5.23;;;;;;;;;;5031647;28;20192;-81
2023/07/14 01:10:51;;;;;;;9.27;5.50;;;;;;;;;;5038412;28;20301;-81
2023/07/14 01:13:18;;;;;;;6.63;5.47;;;;;;;;;;5055805;28;20230;-81
2023/07/14 01:15:44;;;;;;;6.53;5.70;;;;;;;;;;5041021;28;20185;-81
2023/07/14 01:18:11;;;;;;;9.60;6.20;;;;;;;;;;5051466;28;20179;-81
2023/07/14 01:20:38;;;;;;;8.37;5.43;;;;;;;;;;5055936;28;20179;-81
2023/07/14 01:23:13;;;;;;;8.00;5.23;;;;;;;;;;5045934;28;20314;-81
2023/07/14 01:25:42;;;;;;;6.33;5.73;;;;;;;;;;5044290;28;20178;-81
2023/07/14 01:28:11;;;;;;;8.43;5.40;;;;;;;;;;5055835;28;20218;-81
2023/07/14 01:30:37;;;;;;;8.03;6.10;;;;;;;;;;5049243;28;20183;-81
2023/07/14 01:33:04;;;;;;;8.43;6.63;;;;;;;;;;5030479;28;20298;-81
2023/07/14 01:35:35;;;;;;;11.27;6.93;;;;;;;;;;5037401;28;20207;-81
2023/07/14 01:38:01;;;;;;;8.37;7.00;;;;;;;;;;5055877;28;20179;-81
2023/07/14 01:40:27;;;;;;;9.53;6.70;;;;;;;;;;5055449;28;20213;-81
2023/07/14 01:42:56;;;;;;;10.53;6.97;;;;;;;;;;5055664;28;20183;-81
2023/07/14 01:45:23;;;;;;;7.40;6.67;;;;;;;;;;5056941;28;20183;-81
2023/07/14 01:47:54;;;;;;;9.27;6.90;;;;;;;;;;5059490;28;20179;-81
2023/07/14 01:50:40;;;;;;;10.77;7.40;;;;;;;;;;5041235;28;20191;-81
2023/07/14 01:53:10;;;;;;;7.90;7.03;;;;;;;;;;5059192;28;20394;-81
2023/07/14 01:55:38;;;;;;;9.13;7.60;;;;;;;;;;5059941;28;20195;-81
2023/07/14 01:58:10;;;;;;;8.83;7.67;;;;;;;;;;5059426;28;20183;-81
2023/07/14 02:00:37;;;;;;;9.60;7.73;;;;;;;;;;5055450;28;20183;-90
2023/07/14 02:03:05;;;;;;;9.37;7.83;;;;;;;;;;5060035;28;20183;-90
2023/07/14 02:05:34;;;;;;;10.20;8.50;;;;;;;;;;5059758;28;20274;-90
2023/07/14 02:08:05;;;;;;;11.80;8.87;;;;;;;;;;5059293;28;20183;-91
2023/07/14 02:10:31;;;;;;;10.23;8.87;;;;;;;;;;5059470;28;20187;-90
2023/07/14 02:12:57;;;;;;;11.63;9.27;;;;;;;;;;5040160;28;20211;-89
2023/07/14 02:15:26;;;;;;;11.60;9.47;;;;;;;;;;5029378;28;20214;-90
2023/07/14 02:17:53;;;;;;;14.57;9.60;;;;;;;;;;5055084;28;20183;-90
2023/07/14 02:20:33;;;;;;;11.30;9.70;;;;;;;;;;5042977;28;20179;-90
2023/07/14 02:23:01;;;;;;;10.70;8.90;;;;;;;;;;5059238;28;20214;-90
2023/07/14 02:25:28;;;;;;;10.67;9.27;;;;;;;;;;5059492;28;20190;-90
2023/07/14 02:27:54;;;;;;;10.10;9.00;;;;;;;;;;5059016;28;20203;-90
2023/07/14 02:30:26;;;;;;;11.00;9.90;;;;;;;;;;5042759;28;20195;-90
2023/07/14 02:33:02;;;;;;;10.93;9.80;;;;;;;;;;5059348;28;20207;-90
2023/07/14 02:35:47;;;;;;;10.20;9.20;;;;;;;;;;5059373;28;20250;-90
2023/07/14 02:38:15;;;;;;;11.33;9.70;;;;;;;;;;5058890;28;20179;-90
2023/07/14 02:40:46;;;;;;;12.77;9.80;;;;;;;;;;5059230;28;20184;-89
2023/07/14 02:43:14;;;;;;;12.93;9.57;;;;;;;;;;5058809;28;20214;-90
2023/07/14 02:45:44;;;;;;;9.57;8.57;;;;;;;;;;5056203;28;20192;-90
2023/07/14 02:48:14;;;;;;;12.43;9.30;;;;;;;;;;5039545;28;20183;-90
2023/07/14 02:50:43;;;;;;;13.27;9.17;;;;;;;;;;5048694;28;20188;-81
2023/07/14 02:53:10;;;;;;;11.07;9.60;;;;;;;;;;5058168;28;20213;-81
2023/07/14 02:55:37;;;;;;;10.93;9.83;;;;;;;;;;5054366;28;20237;-81
2023/07/14 02:58:04;;;;;;;14.97;11.77;;;;;;;;;;5058056;28;20175;-82
2023/07/14 03:00:30;;;;;;;12.93;11.60;;;;;;;;;;5057964;28;20179;-81
2023/07/14 03:02:57;;;;;;;12.77;11.43;;;;;;;;;;5044604;28;20197;-81
2023/07/14 03:05:23;;;;;;;14.87;12.60;;;;;;;;;;5053937;28;20274;-82
2023/07/14 03:07:49;;;;;;;14.77;13.10;;;;;;;;;;5058451;28;20183;-82
2023/07/14 03:10:15;;;;;;;15.30;13.70;;;;;;;;;;5047636;28;20219;-81
2023/07/14 03:12:41;;;;;;;14.20;12.90;;;;;;;;;;5051103;28;20250;-81
2023/07/14 03:15:07;;;;;;;15.17;13.60;;;;;;;;;;5038533;28;20192;-81
2023/07/14 03:17:33;;;;;;;14.30;12.80;;;;;;;;;;5058103;28;20279;-89
2023/07/14 03:20:00;;;;;;;15.13;13.10;;;;;;;;;;5040781;28;20180;-90
2023/07/14 03:22:30;;;;;;;19.27;13.77;;;;;;;;;;5031508;28;20202;-89
2023/07/14 03:24:56;;;;;;;15.57;13.03;;;;;;;;;;5058419;28;20240;-90
2023/07/14 03:27:22;;;;;;;14.83;13.40;;;;;;;;;;5058349;28;20202;-89
2023/07/14 03:29:48;;;;;;;15.37;13.87;;;;;;;;;;5034912;28;20231;-90
2023/07/14 03:32:14;;;;;;;16.10;13.87;;;;;;;;;;5021059;28;20246;-90
2023/07/14 03:34:41;;;;;;;17.73;14.47;;;;;;;;;;5037990;28;20246;-90
2023/07/14 03:37:07;;;;;;;21.77;14.60;;;;;;;;;;5054770;28;20183;-91
2023/07/14 03:39:33;;;;;;;14.70;13.23;;;;;;;;;;5054277;28;20210;-89
2023/07/14 03:42:00;;;;;;;16.10;12.97;;;;;;;;;;5038337;28;20267;-90
2023/07/14 03:44:26;;;;;;;17.40;13.13;;;;;;;;;;5054618;28;20190;-89
2023/07/14 03:46:52;;;;;;;18.23;14.33;;;;;;;;;;5054483;28;20188;-89
2023/07/14 03:49:18;;;;;;;14.87;12.93;;;;;;;;;;5054799;28;20187;-90
2023/07/14 03:51:44;;;;;;;16.27;12.90;;;;;;;;;;5054291;28;20183;-89
2023/07/14 03:54:11;;;;;;;15.60;13.87;;;;;;;;;;5051863;28;20266;-89
2023/07/14 03:56:37;;;;;;;14.87;13.37;;;;;;;;;;5054024;28;20190;-90
2023/07/14 03:59:03;;;;;;;14.93;13.17;;;;;;;;;;5054069;28;20187;-89
2023/07/14 04:01:29;;;;;;;16.20;14.50;;;;;;;;;;5041040;28;20187;-90
2023/07/14 04:03:58;;;;;;;13.90;12.40;;;;;;;;;;5038054;28;20224;-89
2023/07/14 04:06:24;;;;;;;13.93;12.50;;;;;;;;;;5054027;28;20187;-90
2023/07/14 04:08:52;;;;;;;13.73;12.43;;;;;;;;;;5037303;28;20249;-90
2023/07/14 04:11:19;;;;;;;14.93;11.87;;;;;;;;;;5053600;28;20191;-89
2023/07/14 04:13:45;;;;;;;14.37;12.43;;;;;;;;;;5053258;28;20231;-90
2023/07/14 04:16:11;;;;;;;12.60;11.30;;;;;;;;;;5036996;28;20187;-89
2023/07/14 04:18:37;;;;;;;16.60;12.93;;;;;;;;;;5037327;28;20183;-90
2023/07/14 04:21:06;;;;;;;15.47;12.10;;;;;;;;;;5054024;28;20190;-90
2023/07/14 04:23:32;;;;;;;12.33;11.13;;;;;;;;;;5037433;28;20228;-90
2023/07/14 04:25:59;;;;;;;14.03;11.73;;;;;;;;;;5043438;28;20183;-81
2023/07/14 04:28:25;;;;;;;14.80;10.93;;;;;;;;;;5025642;28;20241;-83
2023/07/14 04:30:55;;;;;;;16.37;10.53;;;;;;;;;;5030925;28;20259;-82
2023/07/14 04:33:24;;;;;;;13.00;11.63;;;;;;;;;;5043165;28;20211;-82
2023/07/14 04:35:54;;;;;;;13.33;10.70;;;;;;;;;;5048564;28;20238;-82
2023/07/14 04:38:20;;;;;;;14.17;10.67;;;;;;;;;;5052056;28;20188;-80
2023/07/14 04:40:47;;;;;;;12.60;11.30;;;;;;;;;;5033291;28;20436;-82
2023/07/14 04:43:14;;;;;;;11.30;10.20;;;;;;;;;;5044654;28;20179;-83
2023/07/14 04:45:40;;;;;;;11.60;10.40;;;;;;;;;;5034823;28;20176;-82
2023/07/14 04:48:12;;;;;;;14.60;11.13;;;;;;;;;;5035474;28;20180;-82
2023/07/14 04:50:38;;;;;;;13.83;10.07;;;;;;;;;;5045909;28;20184;-83
2023/07/14 04:53:07;;;;;;;12.27;10.73;;;;;;;;;;5023565;28;20235;-82
2023/07/14 04:55:37;;;;;;;16.30;11.90;;;;;;;;;;5030568;28;20179;-82
2023/07/14 04:58:04;;;;;;;13.97;11.97;;;;;;;;;;5032552;28;20172;-82
2023/07/14 05:00:31;;;;;;;15.57;11.70;;;;;;;;;;5032988;28;20199;-82
2023/07/14 05:02:57;;;;;;;16.80;12.07;;;;;;;;;;5016847;28;20234;-82
2023/07/14 05:05:24;;;;;;;16.33;12.13;;;;;;;;;;5016593;28;20235;-82
2023/07/14 05:07:50;;;;;;;14.90;11.77;;;;;;;;;;5032761;28;20223;-82
2023/07/14 05:10:17;;;;;;;14.17;11.87;;;;;;;;;;5032688;28;20244;-83
2023/07/14 05:12:43;;;;;;;14.47;12.97;;;;;;;;;;5032959;28;20212;-82
2023/07/14 05:15:12;;;;;;;14.17;11.93;;;;;;;;;;5016472;28;20184;-82
2023/07/14 05:17:39;;;;;;;14.40;12.47;;;;;;;;;;5032402;28;20180;-82
2023/07/14 05:20:06;;;;;;;15.13;11.97;;;;;;;;;;5031977;28;20181;-83
2023/07/14 05:22:33;;;;;;;16.73;11.87;;;;;;;;;;5015943;28;20216;-82
2023/07/14 05:24:59;;;;;;;15.40;12.33;;;;;;;;;;5032573;28;20226;-82
2023/07/14 05:27:25;;;;;;;17.63;11.47;;;;;;;;;;5032396;28;20242;-83
2023/07/14 05:29:53;;;;;;;17.70;11.20;;;;;;;;;;5016249;28;20235;-83
2023/07/14 05:32:19;;;;;;;20.90;11.10;;;;;;;;;;5016363;28;20227;-82
2023/07/14 05:34:46;;;;;;;22.63;11.00;;;;;;;;;;5032618;28;20261;-83
2023/07/14 05:37:12;;;;;;;17.10;9.77;;;;;;;;;;5016028;28;20196;-82
2023/07/14 05:39:38;;;;;;;14.63;9.43;;;;;;;;;;5032514;28;20208;-82
2023/07/14 05:42:04;;;;;;;12.10;9.20;;;;;;;;;;5032846;28;20184;-83
2023/07/14 05:44:31;;;;;;;11.00;9.20;;;;;;;;;;5016227;28;20209;-83
2023/07/14 05:46:57;;;;;;;11.47;8.83;;;;;;;;;;5026227;28;20184;-83
2023/07/14 05:49:23;;;;;;;10.90;9.57;;;;;;;;;;5032358;28;20264;-83
2023/07/14 05:51:51;;;;;;;11.93;9.90;;;;;;;;;;5044143;28;20208;-82
2023/07/14 05:54:17;;;;;;;16.97;10.30;;;;;;;;;;5051538;28;20243;-82
2023/07/14 05:56:43;;;;;;;17.67;9.47;;;;;;;;;;5045021;28;20268;-82
2023/07/14 05:59:10;;;;;;;15.77;11.07;;;;;;;;;;5032751;28;20180;-82
2023/07/14 06:01:36;;;;;;;16.53;11.23;;;;;;;;;;5025474;28;20184;-83
2023/07/14 06:04:02;;;;;;;17.53;11.27;;;;;;;;;;5031442;28;20291;-82
2023/07/14 06:06:31;;;;;;;17.67;11.13;;;;;;;;;;5016704;28;20196;-82
2023/07/14 06:08:57;;;;;;;15.90;11.60;;;;;;;;;;5031422;28;20200;-82
2023/07/14 06:11:23;;;;;;;16.53;11.80;;;;;;;;;;5019848;28;20195;-82
2023/07/14 06:13:50;;;;;;;15.60;11.30;;;;;;;;;;5049890;28;20212;-82
2023/07/14 06:16:16;;;;;;;15.33;10.73;;;;;;;;;;5049905;28;20192;-83
2023/07/14 06:18:43;;;;;;;12.93;10.67;;;;;;;;;;5031309;28;20212;-84
2023/07/14 06:21:10;;;;;;;17.73;10.20;;;;;;;;;;5047846;28;20616;-84
2023/07/14 06:23:37;;;;;;;11.77;9.07;;;;;;;;;;5052269;28;20182;-84
2023/07/14 06:26:05;;;;;;;13.03;9.13;;;;;;;;;;5048829;28;20181;-84
2023/07/14 06:28:31;;;;;;;13.87;9.80;;;;;;;;;;5048108;28;20288;-85
2023/07/14 06:30:58;;;;;;;13.13;9.03;;;;;;;;;;5026604;28;20191;-84
2023/07/14 06:33:25;;;;;;;11.37;8.97;;;;;;;;;;5039195;28;20211;-84
2023/07/14 06:35:52;;;;;;;12.20;8.97;;;;;;;;;;5042700;28;20209;-85
2023/07/14 06:38:18;;;;;;;12.77;9.30;;;;;;;;;;5053802;28;20419;-83
2023/07/14 06:40:44;;;;;;;11.37;7.73;;;;;;;;;;5040210;28;20184;-83
2023/07/14 06:43:11;;;;;;;9.23;6.23;;;;;;;;;;5037335;28;20217;-85
2023/07/14 06:45:37;;;;;;;9.43;7.07;;;;;;;;;;5042562;28;20195;-84
2023/07/14 06:48:03;;;;;;;8.67;6.47;;;;;;;;;;5029241;28;20245;-84
2023/07/14 06:50:29;;;;;;;10.13;5.90;;;;;;;;;;5025309;28;20180;-84
2023/07/14 06:52:58;;;;;;;12.53;6.27;;;;;;;;;;5058288;28;20214;-84
2023/07/14 06:55:24;;;;;;;9.17;5.73;;;;;;;;;;5045852;28;20179;-85
2023/07/14 06:57:50;;;;;;;9.50;7.00;;;;;;;;;;5033125;28;20187;-84
2023/07/14 07:00:20;;;;;;;8.83;6.70;;;;;;;;;;5034162;28;20180;-85
2023/07/14 07:02:47;;;;;;;11.97;6.87;;;;;;;;;;5039211;28;20183;-84
2023/07/14 07:05:13;;;;;;;8.93;6.00;;;;;;;;;;5046473;28;20262;-84
2023/07/14 07:07:41;;;;;;;10.40;6.17;;;;;;;;;;5037097;28;20285;-84
2023/07/14 07:10:07;;;;;;;11.37;6.93;;;;;;;;;;5055733;28;20179;-84
2023/07/14 07:12:33;;;;;;;10.00;6.93;;;;;;;;;;5040919;28;20281;-86
2023/07/14 07:14:59;;;;;;;10.27;7.00;;;;;;;;;;5046183;28;20193;-85
2023/07/14 07:17:25;;;;;;;11.30;7.37;;;;;;;;;;5045982;28;20190;-84
2023/07/14 07:19:51;;;;;;;9.50;6.07;;;;;;;;;;5039197;28;20183;-85
2023/07/14 07:22:17;;;;;;;9.30;6.33;;;;;;;;;;5039801;28;20211;-85
2023/07/14 07:24:44;;;;;;;8.33;6.07;;;;;;;;;;5039817;28;20180;-84
2023/07/14 07:27:10;;;;;;;13.80;6.37;;;;;;;;;;5030696;28;20234;-84
2023/07/14 07:29:36;;;;;;;10.50;5.97;;;;;;;;;;5037820;28;20224;-84
2023/07/14 07:32:03;;;;;;;6.50;5.53;;;;;;;;;;5040528;28;20187;-85
2023/07/14 07:34:29;;;;;;;8.83;5.53;;;;;;;;;;5038050;28;20204;-85
2023/07/14 07:36:58;;;;;;;12.03;6.23;;;;;;;;;;5050647;28;20187;-84
2023/07/14 07:39:24;;;;;;;8.10;5.67;;;;;;;;;;5058252;28;20184;-86
2023/07/14 07:41:50;;;;;;;9.10;6.00;;;;;;;;;;5043526;28;20195;-84
2023/07/14 07:44:17;;;;;;;7.10;5.80;;;;;;;;;;5020425;28;20180;-83
2023/07/14 07:46:43;;;;;;;8.13;5.60;;;;;;;;;;5043708;28;20230;-83
2023/07/14 07:49:09;;;;;;;7.43;5.77;;;;;;;;;;5036763;28;20196;-86
2023/07/14 07:51:35;;;;;;;8.80;5.40;;;;;;;;;;5051207;28;20191;-84
2023/07/14 07:54:01;;;;;;;12.70;6.07;;;;;;;;;;5057036;28;20253;-84
2023/07/14 07:56:29;;;;;;;8.90;5.43;;;;;;;;;;5057139;28;20179;-84
2023/07/14 07:58:55;;;;;;;9.03;5.47;;;;;;;;;;5057068;28;20175;-84
2023/07/14 08:01:22;;;;;;;7.43;5.73;;;;;;;;;;5037571;28;20188;-84
2023/07/14 08:03:49;;;;;;;7.37;5.53;;;;;;;;;;5037380;28;20183;-84
2023/07/14 08:06:15;;;;;;;11.07;5.40;;;;;;;;;;5037913;28;20257;-84
2023/07/14 08:08:42;;;;;;;6.73;4.67;;;;;;;;;;5050529;28;20183;-84
2023/07/14 08:11:11;;;;;;;8.10;3.70;;;;;;;;;;5021600;28;20267;-84
2023/07/14 08:13:38;;;;;;;4.97;4.10;;;;;;;;;;5052641;28;20211;-84
2023/07/14 08:16:04;;;;;;;5.77;3.83;;;;;;;;;;5048168;28;20316;-84
2023/07/14 08:18:31;;;;;;;8.67;4.00;;;;;;;;;;5039046;28;20188;-84
2023/07/14 08:20:58;;;;;;;6.00;3.57;;;;;;;;;;5056134;28;20187;-84
2023/07/14 08:23:25;;;;;;;7.13;3.73;;;;;;;;;;5039706;28;20197;-84
2023/07/14 08:25:52;;;;;;;6.97;3.00;;;;;;;;;;5043515;28;20187;-84
2023/07/14 08:28:21;;;;;;;5.63;3.30;;;;;;;;;;5028177;28;20262;-84
2023/07/14 08:30:48;;;;;;;6.23;3.67;;;;;;;;;;5037708;28;20192;-84
2023/07/14 08:33:14;;;;;;;9.23;3.53;;;;;;;;;;5036944;28;20216;-84
2023/07/14 08:35:40;;;;;;;5.17;3.37;;;;;;;;;;5017654;28;20199;-84
2023/07/14 08:38:06;;;;;;;5.87;3.53;;;;;;;;;;5035674;28;20218;-84
2023/07/14 08:40:39;;;;;;;5.07;3.23;;;;;;;;;;5039179;28;20266;-84
2023/07/14 08:43:16;;;;;;;4.53;3.57;;;;;;;;;;5045295;28;20188;-84
2023/07/14 08:45:45;;;;;;;4.17;3.37;;;;;;;;;;5051930;28;20237;-85
2023/07/14 08:48:37;;;;;;;5.80;3.50;;;;;;;;;;5043735;28;20184;-84
2023/07/14 08:51:16;;;;;;;7.47;3.00;;;;;;;;;;5047250;28;20188;-84
2023/07/14 08:53:45;;;;;;;6.67;3.20;;;;;;;;;;5042649;28;20215;-84
2023/07/14 08:56:12;;;;;;;5.70;3.00;;;;;;;;;;5046620;28;20183;-84
2023/07/14 08:58:40;;;;;;;5.47;2.97;;;;;;;;;;5057301;28;20186;-84
2023/07/14 09:01:20;;;;;;;6.47;2.90;;;;;;;;;;5036125;28;20176;-84
2023/07/14 09:03:48;;;;;;;3.73;2.67;;;;;;;;;;5053161;28;20187;-83
2023/07/14 09:06:18;;;;;;;4.40;3.33;;;;;;;;;;5056028;28;20212;-83
2023/07/14 09:08:44;;;;;;;6.10;3.17;;;;;;;;;;5056541;28;20183;-83
2023/07/14 09:11:17;;;;;;;4.53;2.83;;;;;;;;;;5056077;28;20177;-84
2023/07/14 09:13:59;;;;;;;6.53;3.40;;;;;;;;;;5050209;28;20235;-84
2023/07/14 09:16:29;;;;;;;7.10;3.50;;;;;;;;;;5053158;28;20245;-84
2023/07/14 09:19:15;;;;;;;4.93;3.20;;;;;;;;;;5055633;28;20183;-84
2023/07/14 09:21:48;;;;;;;6.27;3.33;;;;;;;;;;5056456;28;20186;-85
2023/07/14 09:24:20;;;;;;;4.87;3.07;;;;;;;;;;5054314;28;20247;-84
2023/07/14 09:26:51;;;;;;;4.83;3.50;;;;;;;;;;5052899;28;20190;-84
2023/07/14 09:29:39;;;;;;;4.90;3.30;;;;;;;;;;5054662;28;20242;-85
2023/07/14 09:32:06;;;;;;;4.83;3.43;;;;;;;;;;5054804;28;20241;-85
2023/07/14 09:34:32;;;;;;;6.03;3.03;;;;;;;;;;5055192;28;20221;-84
2023/07/14 09:36:58;;;;;;;4.90;3.10;;;;;;;;;;5054755;28;20183;-85
2023/07/14 09:39:28;;;;;;;5.50;3.00;;;;;;;;;;5055390;28;20186;-85
2023/07/14 09:41:57;;;;;;;4.93;2.90;;;;;;;;;;5056270;28;20171;-85
2023/07/14 09:44:24;;;;;;;5.23;3.20;;;;;;;;;;5055965;28;20183;-85
2023/07/14 09:46:50;;;;;;;4.03;2.93;;;;;;;;;;5056301;28;20214;-84
2023/07/14 09:49:33;;;;;;;8.13;2.90;;;;;;;;;;5039323;28;20183;-85
2023/07/14 09:52:11;;;;;;;4.03;2.87;;;;;;;;;;5054781;28;20190;-85
2023/07/14 09:54:42;;;;;;;6.40;3.00;;;;;;;;;;5055833;28;20323;-85
2023/07/14 09:57:11;;;;;;;4.53;2.53;;;;;;;;;;5055540;28;20212;-85
2023/07/14 09:59:49;;;;;;;5.87;2.97;;;;;;;;;;5055351;28;20190;-85
2023/07/14 10:02:15;;;;;;;4.90;2.80;;;;;;;;;;5055511;28;20183;-85
2023/07/14 10:04:46;;;;;;;5.97;3.30;;;;;;;;;;5055699;28;20179;-85
2023/07/14 10:07:22;;;;;;;3.20;2.90;;;;;;;;;;5057692;28;20275;-84
2023/07/14 10:09:59;;;;;;;6.00;2.87;;;;;;;;;;5059099;28;20179;-85
2023/07/14 10:12:25;;;;;;;5.30;2.70;;;;;;;;;;5059163;28;20183;-84
2023/07/14 10:14:53;;;;;;;4.00;3.00;;;;;;;;;;5042435;28;20179;-84
2023/07/14 10:17:27;;;;;;;3.67;2.73;;;;;;;;;;5042939;28;20233;-84
2023/07/14 10:19:53;;;;;;;5.93;3.30;;;;;;;;;;5059206;28;20179;-84
2023/07/14 10:22:20;;;;;;;4.53;3.22;;;;;;;;;;5059018;28;20179;-84
2023/07/14 10:24:47;;;;;;;4.97;3.20;;;;;;;;;;5059104;28;20181;-89
2023/07/14 10:27:25;;;;;;;5.47;3.08;;;;;;;;;;5059034;28;20236;-91
2023/07/14 10:30:00;;;;;;;3.33;2.45;;;;;;;;;;5058915;28;20227;-88
2023/07/14 10:32:30;;;;;;;5.28;2.90;;;;;;;;;;5059017;28;20185;-89
2023/07/14 10:34:59;;;;;;;6.45;3.10;;;;;;;;;;5058887;28;20175;-89
2023/07/14 10:37:27;;;;;;;4.85;2.90;;;;;;;;;;5058729;28;20246;-88
2023/07/14 10:40:04;;;;;;;3.33;2.70;;;;;;;;;;5058867;28;20175;-89
2023/07/14 10:42:33;;;;;;;7.63;2.92;;;;;;;;;;5076536;28;20194;-89
2023/07/14 10:44:59;;;;;;;3.85;2.88;;;;;;;;;;5058590;28;20257;-89
2023/07/14 10:47:28;;;;;;;6.03;2.75;;;;;;;;;;5058598;28;20175;-88
2023/07/14 10:50:04;;;;;;;7.80;3.30;;;;;;;;;;5058485;28;20182;-88
2023/07/14 10:52:33;;;;;;;5.75;2.95;;;;;;;;;;5058533;28;20167;-89
2023/07/14 10:55:05;;;;;;;3.42;2.63;;;;;;;;;;5058719;28;20179;-87
2023/07/14 10:57:50;;;;;;;6.97;3.00;;;;;;;;;;5058513;28;20274;-88
2023/07/14 11:00:19;;;;;;;3.30;2.65;;;;;;;;;;5058879;28;20198;-87
2023/07/14 11:02:55;;;;;;;3.50;2.47;;;;;;;;;;5063494;28;20183;-89
2023/07/14 11:05:23;;;;;;;4.65;3.00;;;;;;;;;;5067153;28;20175;-88
2023/07/14 11:07:49;;;;;;;5.70;2.95;;;;;;;;;;5058485;28;20176;-87
2023/07/14 11:10:26;;;;;;;6.75;3.20;;;;;;;;;;5041570;28;20181;-87
2023/07/14 11:12:53;;;;;;;4.60;2.70;;;;;;;;;;5037955;28;20214;-90
2023/07/14 11:15:23;;;;;;;5.47;2.47;;;;;;;;;;5037665;28;20176;-88
2023/07/14 11:18:00;;;;;;;4.60;2.70;;;;;;;;;;5037166;28;20172;-91
2023/07/14 11:20:26;;;;;;;4.47;2.75;;;;;;;;;;5038135;28;20167;-89
2023/07/14 11:23:06;;;;;;;4.18;2.88;;;;;;;;;;5038331;28;20187;-90
2023/07/14 11:25:42;;;;;;;4.13;2.72;;;;;;;;;;5038188;28;20176;-93
2023/07/14 11:28:17;;;;;;;5.85;3.05;;;;;;;;;;5040533;28;20289;-89
2023/07/14 11:30:45;;;;;;;3.22;2.60;;;;;;;;;;5058212;28;20233;-89
2023/07/14 11:33:19;;;;;;;4.13;2.75;;;;;;;;;;5057766;28;20215;-88
2023/07/14 11:36:08;;;;;;;5.85;2.70;;;;;;;;;;5057624;28;20171;-88
2023/07/14 11:38:52;;;;;;;4.78;3.05;;;;;;;;;;5057796;28;20171;-89
2023/07/14 11:41:19;;;;;;;5.43;2.90;;;;;;;;;;5057821;28;20178;-88
2023/07/14 11:43:46;;;;;;;4.28;2.78;;;;;;;;;;5057566;28;20179;-88
2023/07/14 11:46:16;;;;;;;5.82;3.15;;;;;;;;;;5057640;28;20185;-88
2023/07/14 11:48:46;;;;;;;6.75;3.30;;;;;;;;;;5057502;28;20232;-88
2023/07/14 11:51:17;;;;;;;6.82;3.30;;;;;;;;;;5041178;28;20342;-89
2023/07/14 11:54:02;;;;;;;3.90;2.97;;;;;;;;;;5057581;28;20203;-88
2023/07/14 11:56:30;;;;;;;3.67;3.03;;;;;;;;;;5057144;28;20210;-88
2023/07/14 11:59:06;;;;;;;4.00;2.60;;;;;;;;;;5041105;28;20214;-88
2023/07/14 12:01:33;;;;;;;4.43;2.60;;;;;;;;;;5057384;28;20179;-88
2023/07/14 12:04:19;;;;;;;5.85;2.78;;;;;;;;;;5040799;28;20179;-89
2023/07/14 12:06:49;;;;;;;5.50;3.33;;;;;;;;;;5057005;28;20187;-89
2023/07/14 12:09:18;;;;;;;4.40;3.03;;;;;;;;;;5056943;28;20191;-88
2023/07/14 12:11:52;;;;;;;5.43;3.17;;;;;;;;;;5057273;28;20190;-88
2023/07/14 12:14:36;;;;;;;7.70;2.95;;;;;;;;;;5057001;28;20203;-88
2023/07/14 12:17:04;;;;;;;4.53;3.03;;;;;;;;;;5056927;28;20171;-88
2023/07/14 12:19:32;;;;;;;5.90;3.17;;;;;;;;;;5056550;28;20175;-88
2023/07/14 12:22:03;;;;;;;6.00;3.22;;;;;;;;;;5056727;28;20224;-87
2023/07/14 12:24:31;;;;;;;5.15;2.90;;;;;;;;;;5048141;28;20214;-88
2023/07/14 12:27:09;;;;;;;4.95;3.17;;;;;;;;;;5036872;28;20176;-87
2023/07/14 12:29:35;;;;;;;4.25;3.05;;;;;;;;;;5032758;28;20260;-88
2023/07/14 12:32:02;;;;;;;4.53;3.00;;;;;;;;;;5017135;28;20192;-87
2023/07/14 12:34:30;;;;;;;5.30;3.40;;;;;;;;;;5016917;28;20228;-88
2023/07/14 12:36:56;;;;;;;5.38;3.20;;;;;;;;;;5033283;28;20211;-87
2023/07/14 12:39:23;;;;;;;4.97;2.97;;;;;;;;;;5017115;28;20180;-89
2023/07/14 12:41:50;;;;;;;4.82;3.10;;;;;;;;;;5033210;28;20226;-86
2023/07/14 12:44:30;;;;;;;5.15;3.30;;;;;;;;;;5033113;28;20181;-85
2023/07/14 12:46:56;;;;;;;3.67;2.90;;;;;;;;;;5033393;28;20176;-88
2023/07/14 12:49:28;;;;;;;5.13;3.10;;;;;;;;;;5033059;28;20180;-88
2023/07/14 12:51:54;;;;;;;6.40;3.42;;;;;;;;;;5033290;28;20192;-86
2023/07/14 12:54:25;;;;;;;4.55;3.25;;;;;;;;;;5016889;28;20212;-84
2023/07/14 12:56:51;;;;;;;4.63;3.15;;;;;;;;;;5033561;28;20240;-85
2023/07/14 12:59:18;;;;;;;4.43;3.20;;;;;;;;;;5017218;28;20172;-84
2023/07/14 13:01:45;;;;;;;5.07;3.15;;;;;;;;;;5016713;28;20187;-81
2023/07/14 13:04:11;;;;;;;6.80;3.10;;;;;;;;;;5033072;28;20180;-85
2023/07/14 13:06:38;;;;;;;6.00;2.92;;;;;;;;;;5033320;28;20176;-83
2023/07/14 13:09:10;;;;;;;5.90;3.20;;;;;;;;;;5032861;28;20188;-83
2023/07/14 13:11:37;;;;;;;4.55;3.00;;;;;;;;;;5032833;28;20256;-86
2023/07/14 13:14:04;;;;;;;3.63;2.80;;;;;;;;;;5032674;28;20303;-84
2023/07/14 13:16:35;;;;;;;5.97;3.10;;;;;;;;;;5032765;28;20263;-83
2023/07/14 13:19:04;;;;;;;6.85;3.25;;;;;;;;;;5032570;28;20176;-85
2023/07/14 13:21:44;;;;;;;3.50;2.88;;;;;;;;;;5032754;28;20176;-85
2023/07/14 13:24:15;;;;;;;5.68;3.33;;;;;;;;;;5032651;28;20273;-82
2023/07/14 13:26:51;;;;;;;4.97;2.90;;;;;;;;;;5032956;28;20173;-85
2023/07/14 13:29:19;;;;;;;8.57;3.28;;;;;;;;;;5032417;28;20290;-85
2023/07/14 13:31:46;;;;;;;6.28;3.60;;;;;;;;;;5032807;28;20234;-85
2023/07/14 13:34:22;;;;;;;6.72;3.10;;;;;;;;;;5032371;28;20291;-84
2023/07/14 13:36:50;;;;;;;4.20;3.38;;;;;;;;;;5032760;28;20176;-84
2023/07/14 13:39:40;;;;;;;6.32;3.50;;;;;;;;;;5032466;28;20177;-85
2023/07/14 13:42:19;;;;;;;4.95;3.28;;;;;;;;;;5034794;28;20172;-84
2023/07/14 13:44:48;;;;;;;7.07;3.00;;;;;;;;;;5036007;28;20411;-85
2023/07/14 13:47:18;;;;;;;4.43;3.08;;;;;;;;;;5036361;28;20180;-84
2023/07/14 13:49:44;;;;;;;6.35;3.20;;;;;;;;;;5036462;28;20195;-85
2023/07/14 13:52:15;;;;;;;5.82;3.47;;;;;;;;;;5036681;28;20184;-85
2023/07/14 13:54:42;;;;;;;6.25;3.05;;;;;;;;;;5037387;28;20204;-86
2023/07/14 13:57:13;;;;;;;7.03;2.88;;;;;;;;;;5036198;28;20177;-85
2023/07/14 13:59:39;;;;;;;6.05;3.03;;;;;;;;;;5019907;28;20287;-85
2023/07/14 14:02:17;;;;;;;5.15;2.90;;;;;;;;;;5036418;28;20233;-83
2023/07/14 14:04:43;;;;;;;6.25;2.95;;;;;;;;;;5036090;28;20180;-84
2023/07/14 14:07:09;;;;;;;4.43;2.75;;;;;;;;;;5019721;28;20185;-83
2023/07/14 14:09:35;;;;;;;6.10;3.10;;;;;;;;;;5036020;28;20176;-83
2023/07/14 14:12:01;;;;;;;6.97;2.60;;;;;;;;;;5019609;28;20212;-83
2023/07/14 14:14:28;;;;;;;3.63;2.45;;;;;;;;;;5019643;28;20220;-85
2023/07/14 14:16:54;;;;;;;7.03;2.60;;;;;;;;;;5019525;28;20185;-85
2023/07/14 14:19:25;;;;;;;4.30;2.50;;;;;;;;;;5019744;28;20184;-85
2023/07/14 14:21:59;;;;;;;4.15;2.55;;;;;;;;;;5035784;28;20173;-85
2023/07/14 14:24:25;;;;;;;5.45;2.50;;;;;;;;;;5035742;28;20211;-85
2023/07/14 14:26:52;;;;;;;4.32;2.53;;;;;;;;;;5035810;28;20169;-84
2023/07/14 14:29:19;;;;;;;5.90;2.55;;;;;;;;;;5037321;28;20232;-84
2023/07/14 14:31:45;;;;;;;6.20;2.60;;;;;;;;;;5039161;28;20196;-84
2023/07/14 14:34:13;;;;;;;5.00;2.42;;;;;;;;;;5038659;28;20238;-84
2023/07/14 14:36:39;;;;;;;5.30;2.80;;;;;;;;;;5038794;28;20176;-85
2023/07/14 14:39:15;;;;;;;4.05;2.80;;;;;;;;;;5038741;28;20168;-85
2023/07/14 14:41:41;;;;;;;4.85;2.90;;;;;;;;;;5039041;28;20175;-86
2023/07/14 14:44:17;;;;;;;5.32;3.00;;;;;;;;;;5038801;28;20175;-85
2023/07/14 14:46:43;;;;;;;5.68;2.95;;;;;;;;;;5038816;28;20175;-85